KWMC/WMC METAR and TAF weather

Enter ICAO airport designator
Station Type Date Time Source
KWMC METAR 2021/05/11 22:56 UTC NOAA

KWMC 112256Z AUTO VRB03KT 10SM CLR 21/M13 A3008 RMK AO2 SLP169 T02111128


Station Type Date Time Source
KWMC Decoded METAR 2021/05/11 22:56 UTC NOAA

WINNEMUCCA MUNICIPAL AIRPORT, NV, United States (KWMC) 40-54N 117-48W 1310M
May 11, 2021 - 06:56 PM EDT / 2021.05.11 2256 UTC
Wind: Variable at 3 MPH (3 KT):0
Visibility: 10 mile(s):0
Sky conditions: clear
Temperature: 70.0 F (21.1 C)
Dew Point: 9.0 F (-12.8 C)
Relative Humidity: 9%
Pressure (altimeter): 30.08 in. Hg (1018 hPa)
ob: KWMC 112256Z AUTO VRB03KT 10SM CLR 21/M13 A3008 RMK AO2 SLP169 T02111128
cycle: 23

Station Type Date Time Source
KWMC TAF 2021/05/11 19:52 UTC NOAA

TAF KWMC 111850Z 1119/1218 VRB06KT P6SM SKC

Example: see airport list